Time;durP1;ratioP1;P1;durP2;ratioP2;P2;SDS_P1;SDS_P2;PMS_P1;PMS_P2;Temp;Humidity;BMP_temperature;BMP_pressure;BME280_temperature;BME280_humidity;BME280_pressure;Samples;Min_cycle;Max_cycle;Signal;HPM_P1;HPM_P2
2021/07/23 00:00:12;;;;;;;0.43;0.30;;;26.90;91.20;;;;;;6223907;23;20231;-96
2021/07/23 00:02:43;;;;;;;1.57;0.30;;;27.10;90.70;;;;;;6222646;23;20177;-96
2021/07/23 00:05:15;;;;;;;1.17;0.30;;;27.30;90.90;;;;;;6223178;23;20184;-96
2021/07/23 00:07:52;;;;;;;1.10;0.50;;;27.50;90.20;;;;;;6223646;23;20679;-96
2021/07/23 00:10:32;;;;;;;2.63;0.40;;;27.30;90.60;;;;;;6221520;23;20330;-96
2021/07/23 00:13:04;;;;;;;0.40;0.20;;;27.30;90.70;;;;;;6220382;23;20188;-96
2021/07/23 00:15:37;;;;;;;0.60;0.37;;;27.40;91.50;;;;;;6220098;23;20165;-96
2021/07/23 00:18:08;;;;;;;1.80;0.30;;;27.60;91.20;;;;;;6209741;23;20188;-91
2021/07/23 00:20:39;;;;;;;0.77;0.30;;;27.40;91.30;;;;;;6218597;23;20180;-96
2021/07/23 00:23:18;;;;;;;0.73;0.40;;;27.40;90.10;;;;;;6218706;23;20176;-96
2021/07/23 00:25:49;;;;;;;1.33;0.40;;;27.60;90.90;;;;;;6219220;23;20176;-96
2021/07/23 00:28:20;;;;;;;0.27;0.23;;;27.30;90.50;;;;;;6218619;23;20176;-96
2021/07/23 00:30:51;;;;;;;0.70;0.30;;;27.40;91.10;;;;;;6219375;23;20678;-96
2021/07/23 00:33:22;;;;;;;0.33;0.30;;;27.40;88.50;;;;;;6218675;23;20207;-95
2021/07/23 00:35:54;;;;;;;2.23;0.30;;;27.40;90.00;;;;;;6220190;23;20223;-96
2021/07/23 00:38:27;;;;;;;0.97;0.50;;;27.40;90.40;;;;;;6219813;23;20180;-96
2021/07/23 00:40:58;;;;;;;0.70;0.40;;;27.40;89.00;;;;;;6219848;23;20472;-95
2021/07/23 00:43:29;;;;;;;0.87;0.30;;;27.50;90.00;;;;;;6219850;23;20201;-96
2021/07/23 00:46:00;;;;;;;0.20;0.20;;;27.40;89.80;;;;;;6218807;23;20203;-96
2021/07/23 00:48:31;;;;;;;0.73;0.23;;;27.10;90.20;;;;;;6218884;23;20169;-96
2021/07/23 00:51:03;;;;;;;0.70;0.30;;;26.90;88.00;;;;;;6219104;23;20204;-95
2021/07/23 00:53:36;;;;;;;1.50;0.40;;;26.90;85.30;;;;;;6220083;23;20243;-96
2021/07/23 00:56:07;;;;;;;1.17;0.43;;;27.00;86.00;;;;;;6220478;23;20192;-96
2021/07/23 00:58:39;;;;;;;0.60;0.27;;;27.00;89.00;;;;;;6222519;23;20192;-96
2021/07/23 01:01:11;;;;;;;1.03;0.30;;;26.90;90.00;;;;;;6225496;23;20192;-96
2021/07/23 01:03:44;;;;;;;1.33;0.50;;;27.00;88.80;;;;;;6231985;23;20164;-96
2021/07/23 01:06:19;;;;;;;0.87;0.47;;;27.10;89.40;;;;;;6239082;22;20256;-96
2021/07/23 01:08:54;;;;;;;0.87;0.50;;;27.20;90.60;;;;;;6240453;22;20271;-96
2021/07/23 01:14:03;;;;;;;1.77;0.57;;;27.70;90.30;;;;;;6244637;22;20202;-96
2021/07/23 01:16:36;;;;;;;0.93;0.50;;;27.90;91.10;;;;;;6273351;22;20171;-96
2021/07/23 01:21:59;;;;;;;0.70;0.30;;;29.20;89.30;;;;;;6235406;23;20165;-96
2021/07/23 01:24:50;;;;;;;1.33;0.40;;;29.40;90.00;;;;;;6235398;23;20180;-96
2021/07/23 01:27:26;;;;;;;1.97;0.60;;;29.60;90.70;;;;;;6242867;22;20176;-96
2021/07/23 01:30:03;;;;;;;0.67;0.40;;;29.60;89.70;;;;;;6242552;22;20223;-96
2021/07/23 01:32:35;;;;;;;1.93;0.60;;;29.20;89.00;;;;;;6242167;22;20187;-96
2021/07/23 01:35:09;;;;;;;1.00;0.60;;;29.60;89.50;;;;;;6205262;23;20169;-96
2021/07/23 01:37:43;;;;;;;1.13;0.60;;;29.70;88.30;;;;;;6231081;23;20178;-96
2021/07/23 01:40:19;;;;;;;1.50;0.60;;;29.80;88.20;;;;;;6211923;23;20188;-96
2021/07/23 01:45:26;;;;;;;1.63;0.43;;;29.80;89.80;;;;;;6236100;22;20209;-96
2021/07/23 01:48:00;;;;;;;1.30;0.30;;;29.70;87.90;;;;;;6263746;22;20186;-96
2021/07/23 01:50:32;;;;;;;1.40;0.57;;;29.40;88.00;;;;;;6245353;22;20196;-96
2021/07/23 01:53:22;;;;;;;2.43;0.60;;;29.40;87.20;;;;;;6249581;22;20181;-96
2021/07/23 01:58:41;;;;;;;1.33;0.40;;;29.70;86.70;;;;;;6178171;22;20279;-96
2021/07/23 02:23:09;;;;;;;2.30;0.77;;;25.70;90.90;;;;;;6219742;22;20250;-96
2021/07/23 02:25:41;;;;;;;1.17;0.80;;;25.20;91.20;;;;;;6245359;22;20162;-96
2021/07/23 02:28:12;;;;;;;2.87;0.70;;;24.50;92.50;;;;;;6262327;23;20172;-96
2021/07/23 02:30:53;;;;;;;1.30;0.50;;;24.10;92.70;;;;;;6232567;23;20271;-96
2021/07/23 02:33:31;;;;;;;2.50;0.60;;;23.90;92.70;;;;;;6260408;23;20179;-96
2021/07/23 02:36:04;;;;;;;3.10;0.70;;;23.60;93.50;;;;;;6238125;23;20195;-96
2021/07/23 02:38:40;;;;;;;2.20;0.50;;;23.40;93.70;;;;;;6261134;23;20201;-94
2021/07/23 02:41:11;;;;;;;2.03;0.90;;;23.30;94.20;;;;;;6246441;23;20203;-94
2021/07/23 02:46:37;;;;;;;2.10;0.80;;;22.80;95.00;;;;;;6210207;22;20302;-96
2021/07/23 02:49:15;;;;;;;4.90;0.70;;;22.60;95.20;;;;;;6236089;23;20293;-96
2021/07/23 02:51:49;;;;;;;1.03;0.63;;;22.50;96.00;;;;;;6245364;22;20261;-96
2021/07/23 02:54:28;;;;;;;2.20;0.60;;;22.50;96.20;;;;;;6241615;23;20172;-96
2021/07/23 02:57:03;;;;;;;3.73;0.50;;;22.40;95.40;;;;;;6267725;23;20176;-96
2021/07/23 03:07:55;;;;;;;0.87;0.40;;;22.00;99.80;;;;;;6215806;22;20215;-96
2021/07/23 03:10:30;;;;;;;1.67;0.50;;;21.30;99.10;;;;;;6249255;23;20203;-96
2021/07/23 03:13:01;;;;;;;4.07;0.53;;;21.30;98.00;;;;;;6246358;23;20176;-96
2021/07/23 03:15:39;;;;;;;1.00;0.63;;;21.30;97.40;;;;;;6249887;23;20641;-96
2021/07/23 03:18:23;;;;;;;2.33;0.60;;;21.30;99.50;;;;;;6249313;23;20251;-96
2021/07/23 03:20:55;;;;;;;0.60;0.40;;;21.20;98.20;;;;;;6250768;23;20661;-96
2021/07/23 03:23:26;;;;;;;1.07;0.43;;;21.10;99.00;;;;;;6230359;23;20175;-96
2021/07/23 03:26:01;;;;;;;1.13;0.60;;;20.90;99.80;;;;;;6261201;23;20187;-96
2021/07/23 03:31:17;;;;;;;2.30;0.60;;;20.80;99.10;;;;;;6259684;23;20223;-96
2021/07/23 03:33:50;;;;;;;2.40;0.60;;;20.70;99.00;;;;;;6259305;23;20249;-96
2021/07/23 03:36:22;;;;;;;0.50;0.50;;;20.70;99.30;;;;;;6262551;23;20183;-96
2021/07/23 03:38:54;;;;;;;3.63;0.50;;;20.70;99.90;;;;;;6260457;23;20175;-96
2021/07/23 03:41:27;;;;;;;2.67;0.60;;;20.60;99.90;;;;;;6249590;23;20230;-96
2021/07/23 03:43:58;;;;;;;1.17;0.40;;;20.40;99.90;;;;;;6252654;23;20179;-96
2021/07/23 03:46:30;;;;;;;2.43;0.70;;;20.30;99.90;;;;;;6256968;23;20230;-96
2021/07/23 03:49:01;;;;;;;2.17;0.63;;;20.30;99.90;;;;;;6225745;23;20175;-95
2021/07/23 03:51:35;;;;;;;2.27;0.70;;;20.20;99.90;;;;;;6271969;22;20199;-96
2021/07/23 03:54:07;;;;;;;2.63;0.80;;;20.20;99.90;;;;;;6271467;22;20215;-96
2021/07/23 03:56:44;;;;;;;5.00;0.90;;;20.10;99.90;;;;;;6269015;22;20176;-96
2021/07/23 03:59:29;;;;;;;2.03;0.90;;;20.00;99.90;;;;;;6248556;23;20803;-96
2021/07/23 04:02:06;;;;;;;2.67;1.10;;;20.00;99.90;;;;;;6254108;23;20662;-95
2021/07/23 04:04:40;;;;;;;5.40;1.20;;;19.90;99.90;;;;;;6250335;23;20179;-95
2021/07/23 04:07:12;;;;;;;1.90;0.47;;;19.80;99.90;;;;;;6250652;23;20175;-96
2021/07/23 04:09:43;;;;;;;1.20;0.90;;;19.80;99.90;;;;;;6249747;23;20192;-95
2021/07/23 04:12:17;;;;;;;3.20;1.10;;;19.70;99.90;;;;;;6248407;23;20294;-96
2021/07/23 04:14:48;;;;;;;4.30;0.90;;;19.60;99.90;;;;;;6249493;23;20637;-96
2021/07/23 04:17:20;;;;;;;1.83;0.90;;;19.50;99.90;;;;;;6251242;23;20175;-96
2021/07/23 04:19:50;;;;;;;3.83;0.70;;;19.40;99.90;;;;;;6249454;23;20172;-96
2021/07/23 04:22:22;;;;;;;1.73;0.60;;;19.30;99.90;;;;;;6249241;23;20179;-96
2021/07/23 04:24:55;;;;;;;1.27;0.40;;;19.20;99.90;;;;;;6250220;23;20265;-96
2021/07/23 04:27:33;;;;;;;1.67;0.40;;;19.20;99.90;;;;;;6249796;23;20183;-96
2021/07/23 04:30:04;;;;;;;0.50;0.40;;;19.10;99.90;;;;;;6248224;23;20194;-96
2021/07/23 04:32:36;;;;;;;1.77;0.40;;;19.00;99.90;;;;;;6247194;23;20199;-96
2021/07/23 04:35:09;;;;;;;1.90;0.40;;;19.00;99.90;;;;;;6248134;23;20164;-95
2021/07/23 04:37:41;;;;;;;1.53;0.50;;;18.90;99.90;;;;;;6249015;23;20170;-96
2021/07/23 04:40:12;;;;;;;2.17;0.60;;;18.80;99.90;;;;;;6250601;23;20206;-96
2021/07/23 04:42:50;;;;;;;1.80;0.60;;;18.80;99.90;;;;;;6248145;23;20187;-94
2021/07/23 04:45:28;;;;;;;1.17;0.50;;;18.70;99.90;;;;;;6249714;23;20179;-95
2021/07/23 04:48:04;;;;;;;0.87;0.50;;;18.60;99.90;;;;;;6255878;23;20172;-95
2021/07/23 04:50:39;;;;;;;1.00;0.40;;;18.50;99.90;;;;;;6253694;23;20205;-96
2021/07/23 04:53:13;;;;;;;2.43;0.70;;;18.40;99.90;;;;;;6250730;23;20172;-96
2021/07/23 04:55:50;;;;;;;1.00;0.50;;;18.40;99.90;;;;;;6254526;23;20175;-96
2021/07/23 04:58:27;;;;;;;1.00;0.53;;;18.30;99.90;;;;;;6251201;23;20179;-96
2021/07/23 05:00:59;;;;;;;0.50;0.40;;;18.30;99.90;;;;;;6250757;23;20515;-95
2021/07/23 05:06:23;;;;;;;1.63;0.80;;;18.10;99.90;;;;;;6250265;23;20172;-96
2021/07/23 05:08:55;;;;;;;2.50;0.80;;;18.10;99.90;;;;;;6221500;23;20184;-92
2021/07/23 05:11:28;;;;;;;3.93;0.80;;;18.00;99.90;;;;;;6246451;23;20192;-92
2021/07/23 05:14:02;;;;;;;4.07;0.70;;;17.90;99.90;;;;;;6247565;23;20187;-92
2021/07/23 05:16:33;;;;;;;1.03;0.50;;;17.80;99.90;;;;;;6248644;23;20182;-89
2021/07/23 05:19:06;;;;;;;2.10;1.13;;;17.70;99.90;;;;;;6248054;23;20202;-93
2021/07/23 05:21:38;;;;;;;3.70;0.80;;;17.60;99.90;;;;;;6247798;23;20179;-93
2021/07/23 05:24:09;;;;;;;2.43;0.73;;;17.60;99.90;;;;;;6248282;23;20215;-93
2021/07/23 05:26:41;;;;;;;1.73;0.73;;;17.50;99.90;;;;;;6248165;23;20191;-92
2021/07/23 05:29:14;;;;;;;2.53;0.60;;;17.50;99.90;;;;;;6249568;23;20168;-91
2021/07/23 05:31:45;;;;;;;1.27;0.40;;;17.50;99.90;;;;;;6246865;23;20298;-92
2021/07/23 05:34:16;;;;;;;2.10;0.60;;;17.40;99.90;;;;;;6248199;23;20251;-92
2021/07/23 05:36:47;;;;;;;2.10;0.70;;;17.30;99.90;;;;;;6248636;23;20175;-92
2021/07/23 05:39:19;;;;;;;1.90;0.53;;;17.20;99.90;;;;;;6247823;23;20258;-92
2021/07/23 05:41:50;;;;;;;3.17;0.70;;;17.20;99.90;;;;;;6247427;23;20216;-92
2021/07/23 05:44:24;;;;;;;2.67;0.67;;;17.10;99.90;;;;;;6246855;23;20254;-92
2021/07/23 05:46:55;;;;;;;3.63;0.70;;;16.90;99.90;;;;;;6253104;23;20180;-92
2021/07/23 05:49:26;;;;;;;2.23;0.50;;;17.00;99.90;;;;;;6265895;23;20175;-91
2021/07/23 05:51:57;;;;;;;1.57;0.83;;;16.90;99.90;;;;;;6265978;23;20218;-91
2021/07/23 05:54:28;;;;;;;2.70;0.60;;;16.90;99.90;;;;;;6267179;23;20187;-92
2021/07/23 05:57:00;;;;;;;3.27;0.60;;;16.90;99.90;;;;;;6257387;23;20176;-92
2021/07/23 05:59:33;;;;;;;2.43;0.60;;;16.80;99.90;;;;;;6248887;23;20222;-92
2021/07/23 06:02:05;;;;;;;1.00;0.60;;;16.80;99.90;;;;;;6247913;23;20615;-92
2021/07/23 06:04:36;;;;;;;2.63;1.00;;;16.70;99.90;;;;;;6247724;23;20198;-91
2021/07/23 06:07:10;;;;;;;1.30;0.60;;;16.70;99.90;;;;;;6249139;23;20205;-92
2021/07/23 06:09:44;;;;;;;1.30;0.67;;;16.60;99.90;;;;;;6248966;23;20191;-92
2021/07/23 06:12:15;;;;;;;1.83;0.50;;;16.50;99.90;;;;;;6244823;22;20191;-93
2021/07/23 06:14:48;;;;;;;2.67;0.67;;;16.50;99.90;;;;;;6245111;22;20159;-91
2021/07/23 06:17:20;;;;;;;0.87;0.50;;;16.40;99.90;;;;;;6263256;22;20175;-92
2021/07/23 06:20:16;;;;;;;1.93;0.57;;;16.40;99.90;;;;;;6253720;22;20269;-92
2021/07/23 06:22:48;;;;;;;1.57;0.60;;;16.30;99.90;;;;;;6253060;23;20192;-90
2021/07/23 06:25:19;;;;;;;2.33;0.63;;;16.20;99.90;;;;;;6255348;23;20179;-91
2021/07/23 06:27:51;;;;;;;1.67;0.63;;;16.20;99.90;;;;;;6265213;23;20231;-90
2021/07/23 06:30:25;;;;;;;2.07;0.77;;;16.10;99.90;;;;;;6264725;23;20160;-91
2021/07/23 06:32:57;;;;;;;0.93;0.40;;;16.10;99.90;;;;;;6255348;23;20245;-90
2021/07/23 06:35:31;;;;;;;2.07;0.70;;;16.10;99.90;;;;;;6269814;22;20247;-90
2021/07/23 06:38:04;;;;;;;2.30;0.73;;;16.00;99.90;;;;;;6246196;23;20202;-90
2021/07/23 06:40:35;;;;;;;2.70;0.60;;;16.00;99.90;;;;;;6270615;22;20164;-91
2021/07/23 06:43:07;;;;;;;1.40;0.60;;;15.90;99.90;;;;;;6269358;23;20180;-91
2021/07/23 06:45:42;;;;;;;1.13;0.50;;;15.90;99.90;;;;;;6242617;23;20157;-88
2021/07/23 06:48:13;;;;;;;2.23;0.90;;;15.80;99.90;;;;;;6249382;23;20189;-90
2021/07/23 06:50:46;;;;;;;1.50;0.70;;;15.80;99.90;;;;;;6249939;23;20259;-91
2021/07/23 06:53:17;;;;;;;4.50;0.67;;;15.80;99.90;;;;;;6223431;23;20203;-90
2021/07/23 06:55:48;;;;;;;1.83;0.73;;;15.70;99.90;;;;;;6253953;23;20195;-91
2021/07/23 06:58:19;;;;;;;2.67;0.50;;;15.60;99.90;;;;;;6250779;23;20176;-92
2021/07/23 07:00:53;;;;;;;6.20;0.77;;;15.60;99.90;;;;;;6249679;23;20639;-92
2021/07/23 07:03:24;;;;;;;2.43;0.80;;;15.60;99.90;;;;;;6248495;23;20222;-91
2021/07/23 07:05:55;;;;;;;1.80;0.80;;;15.50;99.90;;;;;;6249352;23;20222;-91
2021/07/23 07:08:26;;;;;;;3.50;0.80;;;15.50;99.90;;;;;;6249265;23;20262;-91
2021/07/23 07:10:57;;;;;;;3.97;0.80;;;15.50;99.90;;;;;;6249261;23;20164;-91
2021/07/23 07:13:28;;;;;;;2.17;0.70;;;15.40;99.90;;;;;;6248446;23;20361;-91
2021/07/23 07:16:03;;;;;;;2.57;0.70;;;15.40;99.90;;;;;;6248838;23;20194;-91
2021/07/23 07:18:34;;;;;;;3.30;0.90;;;15.40;99.90;;;;;;6248613;23;20190;-91
2021/07/23 07:21:07;;;;;;;2.87;1.10;;;15.30;99.90;;;;;;6249016;23;20184;-92
2021/07/23 07:23:39;;;;;;;4.90;0.90;;;15.30;99.90;;;;;;6248661;23;20168;-92
2021/07/23 07:26:11;;;;;;;3.90;0.83;;;15.30;99.90;;;;;;6249584;23;20192;-92
2021/07/23 07:28:52;;;;;;;2.23;0.70;;;15.20;99.90;;;;;;6257651;23;20186;-91
2021/07/23 07:31:26;;;;;;;4.00;0.87;;;15.20;99.90;;;;;;6223493;23;20226;-92
2021/07/23 07:33:58;;;;;;;2.33;0.70;;;15.20;99.90;;;;;;6248314;23;20286;-91
2021/07/23 07:36:29;;;;;;;2.50;0.67;;;15.10;99.90;;;;;;6223659;23;20223;-92
2021/07/23 07:39:01;;;;;;;3.37;1.00;;;15.10;99.90;;;;;;6253317;23;20172;-91
2021/07/23 07:41:34;;;;;;;2.73;0.83;;;15.10;99.90;;;;;;6270195;22;20175;-91
2021/07/23 07:44:06;;;;;;;1.33;0.60;;;15.00;99.90;;;;;;6266454;23;20179;-92
2021/07/23 07:46:39;;;;;;;4.63;0.90;;;14.90;99.90;;;;;;6265763;23;20175;-92
2021/07/23 07:49:10;;;;;;;5.30;1.17;;;14.90;99.90;;;;;;6238734;23;20199;-91
2021/07/23 07:51:41;;;;;;;2.40;0.70;;;14.90;99.90;;;;;;6259642;23;20680;-91
2021/07/23 07:54:12;;;;;;;4.20;0.90;;;14.80;99.90;;;;;;6250786;23;20258;-91
2021/07/23 07:56:44;;;;;;;5.03;1.00;;;14.80;99.90;;;;;;6248667;23;20202;-91
2021/07/23 07:59:15;;;;;;;1.70;0.77;;;14.80;99.90;;;;;;6249692;23;20614;-92
2021/07/23 08:01:48;;;;;;;1.83;0.70;;;14.70;99.90;;;;;;6247645;23;20187;-91
2021/07/23 08:04:19;;;;;;;2.13;1.07;;;14.70;99.90;;;;;;6248131;23;20190;-92
2021/07/23 08:06:50;;;;;;;1.93;0.70;;;14.70;99.90;;;;;;6248526;23;20175;-92
2021/07/23 08:09:21;;;;;;;3.77;0.80;;;14.70;99.90;;;;;;6248916;23;20298;-92
2021/07/23 08:11:53;;;;;;;3.43;0.80;;;14.60;99.90;;;;;;6249279;23;20203;-92
2021/07/23 08:14:24;;;;;;;4.40;0.90;;;14.70;99.90;;;;;;6249999;23;20195;-91
2021/07/23 08:16:57;;;;;;;1.53;0.83;;;14.60;99.90;;;;;;6254578;23;20214;-90
2021/07/23 08:19:28;;;;;;;3.27;0.80;;;14.60;99.90;;;;;;6238142;23;20160;-90
2021/07/23 08:21:59;;;;;;;2.03;0.70;;;14.60;99.90;;;;;;6265755;23;20167;-91
2021/07/23 08:24:30;;;;;;;4.93;0.90;;;14.60;99.90;;;;;;6265002;23;20187;-90
2021/07/23 08:27:01;;;;;;;4.00;1.07;;;14.60;99.90;;;;;;6258817;23;20180;-92
2021/07/23 08:29:32;;;;;;;3.57;1.00;;;14.50;99.90;;;;;;6262970;23;20183;-90
2021/07/23 08:32:13;;;;;;;1.63;0.80;;;14.50;99.90;;;;;;6272481;22;20156;-91
2021/07/23 08:34:45;;;;;;;2.87;0.90;;;14.50;99.90;;;;;;6272503;22;20206;-90
2021/07/23 08:37:16;;;;;;;1.90;0.70;;;14.50;99.90;;;;;;6262871;22;20458;-90
2021/07/23 08:39:47;;;;;;;3.17;0.70;;;14.40;99.90;;;;;;6254281;23;20249;-91
2021/07/23 08:42:28;;;;;;;2.60;0.90;;;14.40;99.90;;;;;;6248895;23;20202;-90
2021/07/23 08:45:01;;;;;;;1.50;0.87;;;14.40;99.90;;;;;;6248862;23;20167;-90
2021/07/23 08:47:35;;;;;;;1.50;0.63;;;14.30;99.90;;;;;;6247907;23;20207;-90
2021/07/23 08:50:07;;;;;;;1.80;0.83;;;14.30;99.90;;;;;;6249472;23;20175;-91
2021/07/23 08:52:40;;;;;;;3.30;0.93;;;14.30;99.90;;;;;;6247223;23;20622;-91
2021/07/23 08:55:13;;;;;;;4.23;1.03;;;14.20;99.90;;;;;;6248042;23;20176;-91
2021/07/23 08:57:44;;;;;;;1.83;0.90;;;14.20;99.90;;;;;;6248004;23;20176;-91
2021/07/23 09:00:17;;;;;;;4.97;1.20;;;14.20;99.90;;;;;;6247789;23;20615;-91
2021/07/23 09:02:57;;;;;;;3.83;1.30;;;14.10;99.90;;;;;;6246155;23;20631;-91
2021/07/23 09:05:30;;;;;;;2.53;0.73;;;14.10;99.90;;;;;;6246551;23;20221;-91
2021/07/23 09:08:03;;;;;;;3.90;0.90;;;14.10;99.90;;;;;;6246763;23;20565;-91
2021/07/23 09:10:34;;;;;;;3.73;1.10;;;14.00;99.90;;;;;;6247550;23;20179;-91
2021/07/23 09:13:06;;;;;;;3.80;1.07;;;14.00;99.90;;;;;;6245696;23;20195;-91
2021/07/23 09:15:40;;;;;;;2.77;0.93;;;14.00;99.90;;;;;;6246483;23;20237;-91
2021/07/23 09:18:23;;;;;;;8.77;1.43;;;13.90;99.90;;;;;;6246557;23;20179;-91
2021/07/23 09:20:59;;;;;;;3.87;1.00;;;13.90;99.90;;;;;;6247855;23;20515;-91
2021/07/23 09:23:32;;;;;;;3.20;1.10;;;13.90;99.90;;;;;;6246171;23;20190;-91
2021/07/23 09:26:16;;;;;;;3.37;1.07;;;13.80;99.90;;;;;;6247750;23;20251;-90
2021/07/23 09:28:49;;;;;;;3.47;0.90;;;13.70;99.90;;;;;;6247721;23;20175;-90
2021/07/23 09:31:23;;;;;;;4.80;1.23;;;13.70;99.90;;;;;;6248546;23;20630;-91
2021/07/23 09:33:58;;;;;;;1.37;0.90;;;13.70;99.90;;;;;;6247222;23;20223;-90
2021/07/23 09:36:30;;;;;;;2.60;0.90;;;13.70;99.90;;;;;;6246983;23;20248;-91
2021/07/23 09:39:21;;;;;;;3.50;1.00;;;13.70;99.90;;;;;;6247063;23;20175;-90
2021/07/23 09:42:02;;;;;;;4.80;0.90;;;13.70;99.90;;;;;;6219866;23;20243;-91
2021/07/23 09:44:33;;;;;;;4.73;0.73;;;13.70;99.90;;;;;;6247479;23;20195;-90
2021/07/23 09:47:04;;;;;;;1.93;0.93;;;13.60;99.90;;;;;;6247280;23;20230;-90
2021/07/23 09:49:46;;;;;;;2.37;0.80;;;13.60;99.90;;;;;;6246960;23;20190;-91
2021/07/23 09:52:17;;;;;;;2.63;0.80;;;13.50;99.90;;;;;;6245735;23;20239;-90
2021/07/23 09:54:48;;;;;;;2.77;0.90;;;13.50;99.90;;;;;;6247037;23;20272;-91
2021/07/23 09:57:22;;;;;;;1.87;1.10;;;13.50;99.90;;;;;;6220736;23;20168;-90
2021/07/23 09:59:59;;;;;;;1.77;0.70;;;13.50;99.90;;;;;;6245856;23;20558;-91
2021/07/23 10:02:34;;;;;;;3.87;0.80;;;13.50;99.90;;;;;;6246121;23;20230;-91
2021/07/23 10:05:15;;;;;;;2.00;0.80;;;13.50;99.90;;;;;;6247789;23;20172;-90
2021/07/23 10:07:50;;;;;;;4.70;0.90;;;13.50;99.90;;;;;;6246958;23;20549;-91
2021/07/23 10:10:22;;;;;;;4.30;1.30;;;13.50;99.90;;;;;;6247078;23;20221;-91
2021/07/23 10:12:55;;;;;;;2.77;1.10;;;13.40;99.90;;;;;;6245794;23;20175;-91
2021/07/23 10:15:27;;;;;;;3.07;0.70;;;13.40;99.90;;;;;;6246097;23;20199;-90
2021/07/23 10:17:58;;;;;;;5.77;1.10;;;13.40;99.90;;;;;;6246692;23;20195;-90
2021/07/23 10:20:32;;;;;;;3.47;1.00;;;13.40;99.90;;;;;;6220726;23;20250;-90
2021/07/23 10:23:04;;;;;;;3.47;0.77;;;13.40;99.90;;;;;;6245870;23;20178;-90
2021/07/23 10:25:37;;;;;;;2.03;0.93;;;13.40;99.90;;;;;;6245878;23;20175;-90
2021/07/23 10:28:10;;;;;;;2.83;1.17;;;13.30;99.90;;;;;;6245814;23;20222;-90
2021/07/23 10:30:42;;;;;;;2.93;1.30;;;13.30;99.90;;;;;;6247017;23;20183;-90
2021/07/23 10:33:51;;;;;;;2.57;0.80;;;13.30;99.90;;;;;;6245727;23;20175;-90
2021/07/23 10:36:42;;;;;;;2.57;0.80;;;13.30;99.90;;;;;;6246969;23;20172;-90
2021/07/23 10:39:20;;;;;;;2.57;0.90;;;13.30;99.90;;;;;;6247574;23;20233;-90
2021/07/23 10:42:31;;;;;;;3.13;0.83;;;13.20;99.90;;;;;;6246696;23;20206;-91
2021/07/23 10:45:03;;;;;;;7.30;1.20;;;13.20;99.90;;;;;;6247211;23;20183;-91
2021/07/23 10:47:44;;;;;;;5.27;1.07;;;13.20;99.90;;;;;;6252902;22;20163;-91
2021/07/23 10:50:32;;;;;;;1.17;0.90;;;13.20;99.90;;;;;;6268092;22;20164;-91
2021/07/23 10:54:03;;;;;;;3.97;1.10;;;13.20;99.90;;;;;;6235721;23;20190;-91
2021/07/23 10:57:07;;;;;;;1.87;0.70;;;13.20;99.90;;;;;;6250038;23;20175;-91
2021/07/23 10:59:59;;;;;;;5.17;0.87;;;13.20;99.90;;;;;;6248050;23;20203;-91
2021/07/23 11:02:51;;;;;;;1.43;0.77;;;13.10;99.90;;;;;;6247039;23;20242;-91
2021/07/23 11:05:23;;;;;;;1.43;1.00;;;13.00;99.90;;;;;;6241257;23;20179;-90
2021/07/23 11:07:59;;;;;;;2.53;0.77;;;13.10;99.90;;;;;;6222042;23;20195;-91
2021/07/23 11:10:33;;;;;;;4.87;1.00;;;13.00;99.90;;;;;;6246951;23;20176;-90
2021/07/23 11:13:12;;;;;;;1.90;0.90;;;13.00;99.90;;;;;;6245418;23;20178;-90
2021/07/23 11:15:44;;;;;;;2.80;1.00;;;12.90;99.90;;;;;;6248002;23;20217;-90
2021/07/23 11:18:16;;;;;;;5.57;1.10;;;13.00;99.90;;;;;;6246847;23;20263;-90
2021/07/23 11:20:48;;;;;;;1.83;1.07;;;12.90;99.90;;;;;;6247619;23;20331;-90
2021/07/23 11:23:19;;;;;;;1.20;0.70;;;12.90;99.90;;;;;;6246055;23;20176;-90
2021/07/23 11:26:12;;;;;;;3.60;1.10;;;12.90;99.90;;;;;;6248056;23;20176;-90
2021/07/23 11:28:51;;;;;;;3.60;0.67;;;12.90;99.90;;;;;;6248062;23;20183;-90
2021/07/23 11:31:31;;;;;;;3.57;1.10;;;12.90;99.90;;;;;;6249526;23;20164;-91
2021/07/23 11:34:21;;;;;;;2.23;0.97;;;12.80;99.90;;;;;;6248872;23;20688;-90
2021/07/23 11:36:53;;;;;;;1.80;0.83;;;12.80;99.90;;;;;;6249765;23;20172;-90
2021/07/23 11:39:25;;;;;;;4.60;1.30;;;12.80;99.90;;;;;;6251789;23;20202;-89
2021/07/23 11:42:03;;;;;;;4.00;1.20;;;12.80;99.90;;;;;;6250253;23;20259;-89
2021/07/23 11:44:35;;;;;;;3.13;1.13;;;12.80;99.90;;;;;;6252343;23;20229;-91
2021/07/23 11:47:06;;;;;;;4.90;1.17;;;12.80;99.90;;;;;;6227894;23;20175;-90
2021/07/23 11:49:37;;;;;;;2.20;0.70;;;12.70;99.90;;;;;;6253483;23;20224;-90
2021/07/23 11:52:09;;;;;;;2.00;0.90;;;12.70;99.90;;;;;;6227108;23;20176;-91
2021/07/23 11:54:45;;;;;;;3.60;0.90;;;12.70;99.90;;;;;;6254725;23;20191;-90
2021/07/23 11:57:19;;;;;;;2.87;1.10;;;12.70;99.90;;;;;;6255680;23;20171;-91
2021/07/23 11:59:50;;;;;;;5.47;1.00;;;12.60;99.90;;;;;;6261245;23;20182;-91
2021/07/23 12:02:27;;;;;;;1.50;0.80;;;12.70;99.90;;;;;;6271315;22;20250;-91
2021/07/23 12:05:08;;;;;;;2.53;1.03;;;12.60;99.90;;;;;;6271313;22;20241;-91
2021/07/23 12:07:41;;;;;;;2.80;0.80;;;12.60;99.90;;;;;;6271157;23;20186;-91
2021/07/23 12:10:15;;;;;;;2.37;1.10;;;12.60;99.90;;;;;;6270332;23;20251;-91
2021/07/23 12:12:49;;;;;;;3.43;1.40;;;12.60;99.90;;;;;;6268102;23;20182;-90
2021/07/23 12:15:20;;;;;;;2.20;0.90;;;12.60;99.90;;;;;;6261604;23;20263;-91
2021/07/23 12:17:51;;;;;;;3.30;0.90;;;12.60;99.90;;;;;;6248977;23;20176;-92
2021/07/23 12:20:29;;;;;;;1.40;0.70;;;12.60;99.90;;;;;;6247778;23;20198;-91
2021/07/23 12:23:01;;;;;;;3.20;0.90;;;12.60;99.90;;;;;;6247588;23;20198;-91
2021/07/23 12:25:43;;;;;;;2.17;0.70;;;12.50;99.90;;;;;;6247704;23;20457;-91
2021/07/23 12:28:18;;;;;;;2.20;1.17;;;12.50;99.90;;;;;;6248065;23;20203;-91
2021/07/23 12:30:50;;;;;;;2.17;1.07;;;12.50;99.90;;;;;;6247797;23;20182;-90
2021/07/23 12:33:26;;;;;;;3.30;0.90;;;12.50;99.90;;;;;;6221043;23;20255;-91
2021/07/23 12:36:01;;;;;;;2.50;0.80;;;12.50;99.90;;;;;;6247619;23;20575;-91
2021/07/23 12:38:32;;;;;;;3.47;1.20;;;12.50;99.90;;;;;;6247989;23;20192;-91
2021/07/23 12:41:04;;;;;;;4.37;1.20;;;12.50;99.90;;;;;;6247774;23;20225;-90
2021/07/23 12:43:39;;;;;;;1.53;1.00;;;12.40;99.90;;;;;;6247219;23;20192;-90
2021/07/23 12:46:29;;;;;;;2.60;0.90;;;12.40;99.90;;;;;;6248024;23;20194;-90
2021/07/23 12:49:14;;;;;;;4.03;1.07;;;12.30;99.90;;;;;;6247538;23;20176;-90
2021/07/23 12:51:46;;;;;;;4.77;1.00;;;12.30;99.90;;;;;;6247106;23;20254;-91
2021/07/23 12:54:17;;;;;;;3.67;1.10;;;12.30;99.90;;;;;;6247281;23;20202;-91
2021/07/23 12:56:48;;;;;;;2.80;0.87;;;12.30;99.90;;;;;;6221163;23;20192;-93
2021/07/23 12:59:29;;;;;;;2.33;0.83;;;12.30;99.90;;;;;;6247729;23;20619;-91
2021/07/23 13:02:00;;;;;;;4.77;1.37;;;12.30;99.90;;;;;;6247663;23;20179;-91
2021/07/23 13:04:31;;;;;;;2.70;0.90;;;12.30;99.90;;;;;;6261332;23;20179;-91
2021/07/23 13:07:02;;;;;;;2.83;0.90;;;12.30;99.90;;;;;;6246330;22;20163;-91
2021/07/23 13:09:33;;;;;;;1.77;0.70;;;12.40;99.90;;;;;;6270939;22;20172;-91
2021/07/23 13:12:06;;;;;;;1.87;0.90;;;12.40;99.90;;;;;;6257210;22;20172;-91
2021/07/23 13:14:42;;;;;;;4.00;0.90;;;12.40;99.90;;;;;;6249863;23;20579;-90
2021/07/23 13:17:13;;;;;;;2.50;0.87;;;12.50;99.90;;;;;;6221219;23;20533;-91
2021/07/23 13:19:44;;;;;;;3.30;0.83;;;12.50;99.90;;;;;;6248446;23;20603;-91
2021/07/23 13:22:17;;;;;;;2.10;1.20;;;12.50;99.90;;;;;;6246978;23;20223;-91
2021/07/23 13:24:49;;;;;;;1.20;0.93;;;12.60;99.90;;;;;;6247347;23;20171;-90
2021/07/23 13:27:20;;;;;;;2.60;0.80;;;12.60;99.90;;;;;;6247318;23;20199;-91
2021/07/23 13:29:53;;;;;;;1.70;0.80;;;12.60;99.90;;;;;;6247070;23;20178;-91
2021/07/23 13:32:24;;;;;;;3.07;1.10;;;12.60;99.90;;;;;;6246798;23;20196;-91
2021/07/23 13:34:55;;;;;;;2.77;1.03;;;12.70;99.90;;;;;;6247185;23;20168;-91
2021/07/23 13:37:32;;;;;;;2.60;0.80;;;12.70;99.90;;;;;;6220533;23;20283;-90
2021/07/23 13:40:09;;;;;;;2.67;1.00;;;12.70;99.90;;;;;;6247351;23;20182;-91
2021/07/23 13:42:46;;;;;;;1.67;0.90;;;12.80;99.90;;;;;;6246335;23;20237;-90
2021/07/23 13:45:19;;;;;;;2.70;0.90;;;12.80;99.90;;;;;;6247445;23;20175;-90
2021/07/23 13:47:50;;;;;;;0.80;0.70;;;12.80;99.90;;;;;;6248198;23;20186;-91
2021/07/23 13:50:23;;;;;;;2.53;0.80;;;12.90;99.90;;;;;;6246977;23;20247;-90
2021/07/23 13:52:54;;;;;;;2.80;1.10;;;12.90;99.90;;;;;;6221188;23;20187;-91
2021/07/23 13:55:26;;;;;;;3.97;0.93;;;12.90;99.90;;;;;;6247449;23;20225;-90
2021/07/23 13:57:58;;;;;;;4.60;1.00;;;12.90;99.90;;;;;;6248498;23;20630;-90
2021/07/23 14:00:31;;;;;;;3.20;0.83;;;13.00;99.90;;;;;;6246867;23;20179;-90
2021/07/23 14:03:15;;;;;;;3.20;0.80;;;13.00;99.90;;;;;;6247495;23;20242;-89
2021/07/23 14:05:46;;;;;;;4.93;0.97;;;13.00;99.90;;;;;;6221053;23;20175;-90
2021/07/23 14:08:17;;;;;;;1.43;0.70;;;13.00;99.90;;;;;;6248224;23;20287;-91
2021/07/23 14:10:49;;;;;;;1.20;0.83;;;13.20;99.90;;;;;;6248104;23;20199;-91
2021/07/23 14:13:19;;;;;;;4.17;1.50;;;13.20;99.90;;;;;;6250446;23;20175;-91